Time;durP1;ratioP1;P1;durP2;ratioP2;P2;SDS_P1;SDS_P2;PMS_P1;PMS_P2;Temp;Humidity;BMP_temperature;BMP_pressure;BME280_temperature;BME280_humidity;BME280_pressure;Samples;Min_cycle;Max_cycle;Signal;HPM_P1;HPM_P2
2023/04/15 00:02:22;;;;;;;3.20;2.55;;;5.90;99.90;;;;;;5097240;28;20035;-87
2023/04/15 00:04:48;;;;;;;2.40;2.20;;;5.80;99.90;;;;;;5095610;28;20040;-87
2023/04/15 00:07:14;;;;;;;2.95;1.70;;;5.90;99.90;;;;;;5095838;28;20036;-87
2023/04/15 00:09:43;;;;;;;2.72;2.13;;;5.70;99.90;;;;;;5095588;28;20039;-87
2023/04/15 00:12:10;;;;;;;2.20;2.00;;;5.70;99.90;;;;;;5096244;28;20075;-87
2023/04/15 00:14:35;;;;;;;3.15;2.55;;;5.60;99.90;;;;;;5096828;28;20050;-86
2023/04/15 00:17:02;;;;;;;2.92;2.42;;;5.50;99.90;;;;;;5096399;28;20127;-87
2023/04/15 00:19:28;;;;;;;2.83;2.05;;;5.50;99.90;;;;;;5096795;28;20044;-87
2023/04/15 00:21:54;;;;;;;3.03;2.45;;;5.40;99.90;;;;;;5095488;28;20040;-87
2023/04/15 00:24:20;;;;;;;2.35;2.20;;;5.40;99.90;;;;;;5096337;28;20503;-86
2023/04/15 00:26:46;;;;;;;2.47;2.28;;;5.50;99.90;;;;;;5096606;28;20093;-87
2023/04/15 00:29:11;;;;;;;3.25;2.63;;;5.40;99.90;;;;;;5096537;28;20036;-86
2023/04/15 00:31:37;;;;;;;3.13;2.83;;;5.30;99.90;;;;;;5095987;28;20043;-86
2023/04/15 00:34:03;;;;;;;2.70;2.25;;;5.40;99.90;;;;;;5096297;28;20147;-86
2023/04/15 00:36:29;;;;;;;2.90;2.38;;;5.30;99.90;;;;;;5095287;28;20036;-86
2023/04/15 00:38:54;;;;;;;2.55;2.35;;;5.30;99.90;;;;;;5096061;28;20334;-86
2023/04/15 00:41:21;;;;;;;2.92;2.63;;;5.40;99.90;;;;;;5096158;28;20090;-86
2023/04/15 00:43:47;;;;;;;2.58;2.22;;;5.40;99.90;;;;;;5096558;28;20079;-87
2023/04/15 00:46:14;;;;;;;2.75;2.17;;;5.20;99.90;;;;;;5096300;28;20079;-86
2023/04/15 00:48:41;;;;;;;2.97;2.67;;;5.30;99.90;;;;;;5096064;28;20036;-86
2023/04/15 00:51:08;;;;;;;3.20;2.63;;;5.30;99.90;;;;;;5094639;28;20071;-87
2023/04/15 00:53:34;;;;;;;2.63;2.30;;;5.30;99.90;;;;;;5095858;28;20098;-86
2023/04/15 00:55:59;;;;;;;3.25;2.95;;;5.30;99.90;;;;;;5094467;28;20040;-86
2023/04/15 00:58:26;;;;;;;3.13;2.50;;;5.20;99.90;;;;;;5094446;28;20040;-86
2023/04/15 01:00:53;;;;;;;2.88;2.60;;;5.20;99.90;;;;;;5077416;28;20040;-87
2023/04/15 01:03:19;;;;;;;3.67;2.88;;;5.10;99.90;;;;;;5095551;28;20083;-86
2023/04/15 01:05:46;;;;;;;2.90;2.70;;;5.10;99.90;;;;;;5094292;28;20043;-86
2023/04/15 01:08:11;;;;;;;3.75;2.40;;;5.00;99.90;;;;;;5095677;28;20035;-87
2023/04/15 01:10:38;;;;;;;3.05;2.80;;;5.00;99.90;;;;;;5095581;28;20170;-86
2023/04/15 01:13:04;;;;;;;2.60;2.40;;;5.00;99.90;;;;;;5094210;28;20089;-86
2023/04/15 01:15:30;;;;;;;2.67;2.47;;;5.00;99.90;;;;;;5094323;28;20489;-86
2023/04/15 01:18:01;;;;;;;3.08;2.83;;;5.00;99.90;;;;;;5076943;28;20040;-86
2023/04/15 01:20:27;;;;;;;3.22;2.80;;;4.90;99.90;;;;;;5095544;28;20040;-86
2023/04/15 01:22:54;;;;;;;3.42;2.83;;;4.90;99.90;;;;;;5093962;28;20040;-86
2023/04/15 01:25:31;;;;;;;3.83;3.25;;;4.90;99.90;;;;;;5095444;28;20388;-86
2023/04/15 01:27:57;;;;;;;3.50;3.20;;;4.90;99.90;;;;;;5095408;28;20039;-86
2023/04/15 01:30:24;;;;;;;2.92;2.70;;;4.90;99.90;;;;;;5095158;28;20067;-86
2023/04/15 01:32:50;;;;;;;3.00;2.70;;;4.90;99.90;;;;;;5093936;28;20036;-86
2023/04/15 01:35:16;;;;;;;3.17;2.85;;;4.80;99.90;;;;;;5093654;28;20083;-86
2023/04/15 01:37:42;;;;;;;5.07;3.40;;;4.80;99.90;;;;;;5077486;28;20064;-86
2023/04/15 01:40:08;;;;;;;3.53;3.22;;;4.80;99.90;;;;;;5094019;28;20472;-86
2023/04/15 01:42:35;;;;;;;3.17;2.90;;;4.80;99.90;;;;;;5093564;28;20062;-86
2023/04/15 01:45:01;;;;;;;3.60;3.20;;;4.80;99.90;;;;;;5093580;28;20115;-85
2023/04/15 01:47:27;;;;;;;3.80;2.90;;;4.80;99.90;;;;;;5094993;28;20131;-86
2023/04/15 01:49:52;;;;;;;3.90;3.03;;;4.80;99.90;;;;;;5094890;28;20039;-86
2023/04/15 01:52:18;;;;;;;3.00;2.70;;;4.80;99.90;;;;;;5094869;28;20032;-86
2023/04/15 01:54:44;;;;;;;3.83;3.33;;;4.80;99.90;;;;;;5095157;28;20166;-86
2023/04/15 01:57:10;;;;;;;3.25;3.00;;;4.80;99.90;;;;;;5094620;28;20058;-86
2023/04/15 01:59:36;;;;;;;3.58;3.15;;;4.70;99.90;;;;;;5094734;28;20036;-86
2023/04/15 02:02:02;;;;;;;3.33;3.03;;;4.60;99.90;;;;;;5094652;28;20119;-86
2023/04/15 02:04:30;;;;;;;3.10;2.85;;;4.50;99.90;;;;;;5094706;28;20038;-86
2023/04/15 02:06:56;;;;;;;4.03;3.55;;;4.50;99.90;;;;;;5094430;28;20047;-86
2023/04/15 02:09:22;;;;;;;3.88;3.22;;;4.60;99.90;;;;;;5076165;28;20097;-86
2023/04/15 02:11:47;;;;;;;3.45;3.15;;;4.50;99.90;;;;;;5094279;28;20115;-86
2023/04/15 02:14:13;;;;;;;4.03;3.70;;;4.50;99.90;;;;;;5094260;28;20044;-85
2023/04/15 02:16:39;;;;;;;3.55;3.25;;;4.60;99.90;;;;;;5093004;28;20053;-86
2023/04/15 02:19:05;;;;;;;3.60;3.30;;;4.50;99.90;;;;;;5092980;28;20043;-86
2023/04/15 02:21:30;;;;;;;4.22;3.88;;;4.60;99.90;;;;;;5094250;28;20040;-86
2023/04/15 02:23:56;;;;;;;3.90;3.60;;;4.50;99.90;;;;;;5092566;28;20048;-86
2023/04/15 02:26:22;;;;;;;4.28;3.88;;;4.50;99.90;;;;;;5094113;28;20463;-86
2023/04/15 02:28:50;;;;;;;4.00;3.70;;;4.40;99.90;;;;;;5094334;28;20038;-86
2023/04/15 02:31:16;;;;;;;4.40;4.00;;;4.40;99.90;;;;;;5092650;28;20073;-86
2023/04/15 02:33:41;;;;;;;4.45;4.07;;;4.40;99.90;;;;;;5092737;28;20044;-86
2023/04/15 02:36:08;;;;;;;4.57;4.18;;;4.50;99.90;;;;;;5092661;28;20388;-86
2023/04/15 02:38:34;;;;;;;4.20;3.80;;;4.50;99.90;;;;;;5092502;28;20055;-86
2023/04/15 02:41:00;;;;;;;4.30;4.00;;;4.50;99.90;;;;;;5093812;28;20399;-86
2023/04/15 02:43:26;;;;;;;4.30;3.88;;;4.60;99.90;;;;;;5092727;28;20048;-86
2023/04/15 02:45:52;;;;;;;4.22;3.85;;;4.50;99.90;;;;;;5093949;28;20464;-86
2023/04/15 02:48:19;;;;;;;4.68;4.28;;;4.50;99.90;;;;;;5092810;28;20048;-86
2023/04/15 02:50:45;;;;;;;4.10;3.80;;;4.50;99.90;;;;;;5092629;28;20484;-86
2023/04/15 02:53:13;;;;;;;4.70;4.22;;;4.40;99.90;;;;;;5093743;28;20051;-86
2023/04/15 02:55:39;;;;;;;3.90;3.60;;;4.40;99.90;;;;;;5093940;28;20047;-86
2023/04/15 02:58:04;;;;;;;5.03;4.28;;;4.30;99.90;;;;;;5092323;28;20043;-86
2023/04/15 03:00:30;;;;;;;3.85;3.55;;;4.30;99.90;;;;;;5094094;28;20071;-86
2023/04/15 03:03:02;;;;;;;4.22;3.78;;;4.30;99.90;;;;;;5092842;28;20040;-86
2023/04/15 03:05:28;;;;;;;4.32;3.92;;;4.20;99.90;;;;;;5092412;28;20052;-86
2023/04/15 03:07:54;;;;;;;3.92;3.63;;;4.20;99.90;;;;;;5093833;28;20431;-86
2023/04/15 03:10:20;;;;;;;4.13;3.72;;;4.20;99.90;;;;;;5092265;28;20036;-86
2023/04/15 03:12:46;;;;;;;4.30;3.90;;;4.20;99.90;;;;;;5093716;28;20040;-86
2023/04/15 03:15:12;;;;;;;4.78;4.32;;;4.20;99.90;;;;;;5093334;28;20380;-86
2023/04/15 03:17:37;;;;;;;4.40;4.00;;;4.10;99.90;;;;;;5093472;28;20039;-86
2023/04/15 03:20:05;;;;;;;4.10;3.80;;;4.20;99.90;;;;;;5093448;28;20086;-86
2023/04/15 03:22:31;;;;;;;4.57;4.18;;;4.20;99.90;;;;;;5092341;28;20044;-86
2023/04/15 03:24:57;;;;;;;3.80;3.50;;;4.20;99.90;;;;;;5093832;28;20489;-86
2023/04/15 03:27:23;;;;;;;4.47;4.07;;;4.10;99.90;;;;;;5092502;28;20071;-86
2023/04/15 03:29:48;;;;;;;4.38;4.07;;;4.20;99.90;;;;;;5093668;28;20052;-86
2023/04/15 03:32:14;;;;;;;4.72;4.32;;;4.20;99.90;;;;;;5126700;28;20044;-86
2023/04/15 03:34:40;;;;;;;4.75;4.40;;;4.10;99.90;;;;;;5093305;28;20051;-86
2023/04/15 03:37:06;;;;;;;4.88;4.47;;;4.10;99.90;;;;;;5097548;28;20085;-86
2023/04/15 03:39:32;;;;;;;4.85;4.45;;;4.10;99.90;;;;;;5129837;27;20056;-86
2023/04/15 03:41:58;;;;;;;4.80;4.40;;;4.10;99.90;;;;;;5096248;28;20131;-86
2023/04/15 03:44:25;;;;;;;4.97;4.57;;;4.00;99.90;;;;;;5097191;28;20456;-86
2023/04/15 03:46:51;;;;;;;4.47;4.07;;;4.00;99.90;;;;;;5097561;28;20050;-86
2023/04/15 03:49:18;;;;;;;4.78;4.38;;;3.90;99.90;;;;;;5096996;28;20035;-86
2023/04/15 03:51:44;;;;;;;4.78;4.38;;;4.00;99.90;;;;;;5097233;28;20066;-86
2023/04/15 03:54:10;;;;;;;5.00;4.60;;;4.00;99.90;;;;;;5097084;28;20480;-86
2023/04/15 03:56:36;;;;;;;5.07;4.68;;;4.00;99.90;;;;;;5095589;28;20055;-86
2023/04/15 03:59:01;;;;;;;6.00;4.50;;;4.00;99.90;;;;;;5078705;28;20036;-86
2023/04/15 04:01:27;;;;;;;5.90;5.40;;;4.00;99.90;;;;;;5096707;28;20047;-86
2023/04/15 04:03:52;;;;;;;5.80;5.40;;;4.10;99.90;;;;;;5096621;28;20043;-86
2023/04/15 04:06:19;;;;;;;5.75;5.35;;;4.10;99.90;;;;;;5096974;28;20051;-86
2023/04/15 04:08:44;;;;;;;5.40;4.90;;;4.10;99.90;;;;;;5096725;28;20040;-86
2023/04/15 04:11:10;;;;;;;5.28;4.80;;;4.00;99.90;;;;;;5097015;28;20406;-86
2023/04/15 04:13:35;;;;;;;5.20;4.78;;;3.90;99.90;;;;;;5096599;28;20043;-86
2023/04/15 04:16:03;;;;;;;5.68;5.22;;;4.00;99.90;;;;;;5095036;28;20075;-85
2023/04/15 04:18:30;;;;;;;5.97;5.43;;;3.90;99.90;;;;;;5129196;27;20050;-86
2023/04/15 04:20:55;;;;;;;5.50;5.00;;;4.00;99.90;;;;;;5095293;28;20079;-86
2023/04/15 04:23:21;;;;;;;5.93;5.45;;;3.90;99.90;;;;;;5094875;28;20461;-86
2023/04/15 04:25:47;;;;;;;5.38;4.97;;;3.80;99.90;;;;;;5095090;28;20052;-86
2023/04/15 04:28:12;;;;;;;6.13;5.63;;;3.80;99.90;;;;;;5094901;28;20032;-86
2023/04/15 04:30:38;;;;;;;6.43;5.85;;;3.80;99.90;;;;;;5096047;28;20069;-86
2023/04/15 04:33:04;;;;;;;6.55;6.05;;;3.80;99.90;;;;;;5096197;28;20078;-85
2023/04/15 04:35:32;;;;;;;6.57;6.07;;;4.00;99.90;;;;;;5094930;28;20079;-85
2023/04/15 04:37:58;;;;;;;6.80;6.30;;;4.00;99.90;;;;;;5095680;28;20182;-85
2023/04/15 04:40:23;;;;;;;7.45;6.85;;;4.20;99.90;;;;;;5095773;28;20524;-86
2023/04/15 04:42:49;;;;;;;6.95;6.45;;;4.20;99.90;;;;;;5094485;28;20050;-85
2023/04/15 04:45:14;;;;;;;8.43;7.72;;;4.40;99.90;;;;;;5094060;28;20044;-86
2023/04/15 04:47:40;;;;;;;7.78;7.18;;;4.40;99.90;;;;;;5095959;28;20047;-85
2023/04/15 04:50:07;;;;;;;8.50;7.80;;;4.40;99.90;;;;;;5095803;28;20486;-85
2023/04/15 04:52:33;;;;;;;7.93;7.32;;;4.50;99.90;;;;;;5095680;28;20040;-85
2023/04/15 04:54:59;;;;;;;8.05;7.45;;;4.60;99.90;;;;;;5095657;28;20063;-85
2023/04/15 04:57:24;;;;;;;8.75;8.05;;;4.60;99.90;;;;;;5094175;28;20396;-85
2023/04/15 04:59:50;;;;;;;9.10;8.40;;;4.60;99.90;;;;;;5095647;28;20100;-86
2023/04/15 05:02:16;;;;;;;8.60;8.00;;;4.60;99.90;;;;;;5095799;28;20480;-86
2023/04/15 05:04:41;;;;;;;9.38;8.68;;;4.70;99.90;;;;;;5077290;28;20052;-86
2023/04/15 05:07:07;;;;;;;9.25;8.48;;;4.70;99.90;;;;;;5095683;28;20388;-86
2023/04/15 05:09:34;;;;;;;9.07;8.38;;;4.80;99.90;;;;;;5095452;28;20079;-86
2023/04/15 05:12:01;;;;;;;9.85;9.15;;;4.70;99.90;;;;;;5095588;28;20063;-86
2023/04/15 05:14:26;;;;;;;9.75;8.95;;;4.80;99.90;;;;;;5095011;28;20487;-86
2023/04/15 05:16:52;;;;;;;10.23;9.43;;;4.90;99.90;;;;;;5095466;28;20043;-86
2023/04/15 05:19:17;;;;;;;9.75;9.05;;;5.00;99.90;;;;;;5095308;28;20036;-86
2023/04/15 05:21:43;;;;;;;9.50;8.73;;;5.00;99.90;;;;;;5094165;28;20048;-86
2023/04/15 05:24:09;;;;;;;9.48;8.70;;;5.10;99.90;;;;;;5093856;28;20044;-86
2023/04/15 05:26:34;;;;;;;9.60;8.88;;;5.10;99.90;;;;;;5093862;28;20047;-86
2023/04/15 05:29:00;;;;;;;9.63;8.90;;;5.10;99.90;;;;;;5076814;28;20123;-85
2023/04/15 05:31:26;;;;;;;9.98;9.27;;;5.20;99.90;;;;;;5095016;28;20420;-86
2023/04/15 05:33:51;;;;;;;9.52;8.82;;;5.30;99.90;;;;;;5093356;28;20044;-86
2023/04/15 05:36:17;;;;;;;8.98;8.27;;;5.30;99.90;;;;;;5093368;28;20118;-85
2023/04/15 05:38:42;;;;;;;9.05;8.32;;;5.30;99.90;;;;;;5093346;28;20127;-86
2023/04/15 05:41:08;;;;;;;8.85;8.25;;;5.40;99.90;;;;;;5094857;28;20061;-86
2023/04/15 05:43:34;;;;;;;9.35;8.65;;;5.50;99.90;;;;;;5127726;27;20654;-86
2023/04/15 05:45:59;;;;;;;9.07;8.38;;;5.50;99.90;;;;;;5093275;28;20093;-86
2023/04/15 05:48:25;;;;;;;8.90;8.20;;;5.60;99.90;;;;;;5127713;27;20067;-86
2023/04/15 05:50:51;;;;;;;8.93;8.23;;;5.50;99.90;;;;;;5093761;28;20468;-86
2023/04/15 05:53:16;;;;;;;8.50;7.80;;;5.60;99.90;;;;;;5094608;28;20169;-86
2023/04/15 05:55:42;;;;;;;8.20;7.50;;;5.60;99.90;;;;;;5093477;28;20127;-86
2023/04/15 05:58:07;;;;;;;8.30;7.70;;;5.60;99.90;;;;;;5092411;28;20036;-86
2023/04/15 06:00:33;;;;;;;8.82;8.20;;;5.70;99.90;;;;;;5092808;28;20039;-86
2023/04/15 06:02:59;;;;;;;8.55;7.95;;;5.70;99.90;;;;;;5094568;28;20116;-86
2023/04/15 06:05:25;;;;;;;8.43;7.82;;;5.70;99.90;;;;;;5094217;28;20411;-86
2023/04/15 06:07:51;;;;;;;8.55;7.95;;;5.70;99.90;;;;;;5094486;28;20036;-86
2023/04/15 06:10:16;;;;;;;8.85;8.15;;;5.80;99.90;;;;;;5093474;28;20040;-86
2023/04/15 06:12:42;;;;;;;9.23;8.52;;;5.80;99.90;;;;;;5094443;28;20102;-86
2023/04/15 06:15:09;;;;;;;8.55;7.85;;;6.00;99.90;;;;;;5094082;28;20131;-86
2023/04/15 06:17:35;;;;;;;9.32;8.63;;;6.00;99.90;;;;;;5092960;28;20051;-86
2023/04/15 06:20:01;;;;;;;9.05;8.45;;;6.10;99.90;;;;;;5092808;28;20491;-86
2023/04/15 06:22:27;;;;;;;8.52;7.93;;;6.20;99.90;;;;;;5076239;28;20047;-86
2023/04/15 06:24:53;;;;;;;9.05;8.43;;;6.20;99.90;;;;;;5092876;28;20040;-86
2023/04/15 06:27:19;;;;;;;8.60;8.00;;;6.30;99.90;;;;;;5094384;28;20036;-87
2023/04/15 06:29:45;;;;;;;8.68;7.97;;;6.40;99.90;;;;;;5094359;28;20069;-86
2023/04/15 06:32:11;;;;;;;8.32;7.72;;;6.50;99.90;;;;;;5092997;28;20119;-86
2023/04/15 06:34:37;;;;;;;8.52;7.93;;;6.40;99.90;;;;;;5092514;28;20040;-90
2023/04/15 06:37:03;;;;;;;8.23;7.57;;;6.60;99.90;;;;;;5094055;28;20047;-84
2023/04/15 06:39:28;;;;;;;8.40;7.80;;;6.60;99.90;;;;;;5092244;28;20036;-85
2023/04/15 06:41:55;;;;;;;8.18;7.57;;;6.60;99.90;;;;;;5092533;28;20059;-84
2023/04/15 06:44:20;;;;;;;8.23;7.63;;;6.70;99.90;;;;;;5093786;28;20036;-80
2023/04/15 06:46:46;;;;;;;8.07;7.47;;;6.70;99.90;;;;;;5092816;28;20051;-79
2023/04/15 06:49:12;;;;;;;8.30;7.70;;;6.80;99.90;;;;;;5093750;28;20028;-77
2023/04/15 06:51:37;;;;;;;8.85;8.15;;;6.90;99.90;;;;;;5093701;28;20454;-78
2023/04/15 06:54:04;;;;;;;8.02;7.43;;;6.90;99.90;;;;;;5092493;28;20047;-77
2023/04/15 06:56:31;;;;;;;8.65;8.05;;;6.90;99.90;;;;;;5092084;28;20040;-79
2023/04/15 06:58:57;;;;;;;8.00;7.40;;;7.00;99.90;;;;;;5092024;28;20082;-82
2023/04/15 07:01:22;;;;;;;8.50;7.90;;;7.00;99.90;;;;;;5093566;28;20068;-83
2023/04/15 07:03:48;;;;;;;8.10;7.50;;;7.10;99.90;;;;;;5094303;28;20047;-80
2023/04/15 07:06:14;;;;;;;8.27;7.68;;;7.20;99.90;;;;;;5092050;28;20082;-78
2023/04/15 07:08:39;;;;;;;8.23;7.63;;;7.10;99.90;;;;;;5093686;28;20048;-79
2023/04/15 07:11:05;;;;;;;7.88;7.28;;;7.30;99.90;;;;;;5097648;28;20046;-77
2023/04/15 07:13:31;;;;;;;7.88;7.28;;;7.30;99.90;;;;;;5097241;28;20036;-76
2023/04/15 07:15:57;;;;;;;7.95;7.35;;;7.40;99.90;;;;;;5097327;28;20051;-78
2023/04/15 07:18:23;;;;;;;7.10;6.60;;;7.50;99.90;;;;;;5097437;28;20040;-77
2023/04/15 07:20:48;;;;;;;7.00;6.40;;;7.50;99.90;;;;;;5097384;28;20118;-76
2023/04/15 07:23:15;;;;;;;6.90;6.30;;;7.60;99.90;;;;;;5097298;28;20055;-76
2023/04/15 07:25:40;;;;;;;7.70;7.10;;;7.60;99.90;;;;;;5095670;28;20050;-78
2023/04/15 07:28:06;;;;;;;6.50;5.97;;;7.70;99.90;;;;;;5129851;27;20040;-79
2023/04/15 07:30:32;;;;;;;6.15;5.65;;;7.70;99.90;;;;;;5129747;27;20438;-78
2023/04/15 07:32:58;;;;;;;7.18;6.63;;;7.80;99.90;;;;;;5096869;28;20032;-78
2023/04/15 07:35:25;;;;;;;6.72;6.22;;;7.90;99.90;;;;;;5078722;28;20044;-77
2023/04/15 07:37:51;;;;;;;6.57;6.07;;;7.90;99.90;;;;;;5078524;28;20117;-78
2023/04/15 07:40:17;;;;;;;7.22;6.63;;;8.00;99.90;;;;;;5095767;28;20411;-79
2023/04/15 07:42:43;;;;;;;7.60;6.90;;;8.10;99.90;;;;;;5097535;28;20078;-80
2023/04/15 07:45:10;;;;;;;8.10;7.43;;;8.20;99.90;;;;;;5096888;28;20499;-76
2023/04/15 07:47:35;;;;;;;7.93;7.30;;;8.20;99.90;;;;;;5095662;28;20044;-76
2023/04/15 07:50:01;;;;;;;6.53;5.97;;;8.40;99.90;;;;;;5096829;28;20050;-75
2023/04/15 07:52:27;;;;;;;7.38;6.78;;;8.30;99.90;;;;;;5096786;28;20115;-71
2023/04/15 07:54:53;;;;;;;7.35;6.85;;;8.40;99.90;;;;;;5095225;28;20503;-72
2023/04/15 07:57:18;;;;;;;7.07;6.50;;;8.50;99.90;;;;;;5129316;27;20119;-75
2023/04/15 07:59:44;;;;;;;7.18;6.50;;;8.60;99.90;;;;;;5095149;28;20392;-81
2023/04/15 08:02:10;;;;;;;6.30;5.80;;;8.60;99.90;;;;;;5095180;28;20032;-78
2023/04/15 08:04:37;;;;;;;5.85;5.43;;;8.70;99.90;;;;;;5096176;28;20548;-78
2023/04/15 08:07:03;;;;;;;6.05;5.65;;;8.70;99.90;;;;;;5094959;28;20115;-75
2023/04/15 08:09:29;;;;;;;5.68;5.28;;;8.70;99.90;;;;;;5077968;28;20036;-73
2023/04/15 08:11:55;;;;;;;5.57;5.18;;;8.80;99.90;;;;;;5096405;28;20048;-73
2023/04/15 08:14:21;;;;;;;3.75;3.45;;;8.90;99.90;;;;;;5095093;28;20044;-73
2023/04/15 08:16:47;;;;;;;3.17;2.88;;;9.10;99.90;;;;;;5096325;28;20058;-72
2023/04/15 08:19:13;;;;;;;3.13;2.90;;;9.10;99.90;;;;;;5094965;28;20028;-73
2023/04/15 08:21:39;;;;;;;2.85;2.65;;;9.10;99.90;;;;;;5094185;28;20407;-73
2023/04/15 08:24:05;;;;;;;2.97;2.78;;;9.20;99.90;;;;;;5094978;28;20047;-73
2023/04/15 08:26:31;;;;;;;4.53;3.90;;;9.10;99.90;;;;;;5094604;28;20093;-73
2023/04/15 08:28:57;;;;;;;3.03;2.83;;;9.10;99.90;;;;;;5077677;28;20036;-73
2023/04/15 08:31:23;;;;;;;3.28;2.97;;;9.00;99.90;;;;;;5095828;28;20035;-71
2023/04/15 08:33:51;;;;;;;2.92;2.72;;;9.10;99.90;;;;;;5094616;28;20050;-86
2023/04/15 08:36:17;;;;;;;3.40;3.10;;;9.10;99.90;;;;;;5077596;28;20036;-80
2023/04/15 08:38:44;;;;;;;4.15;2.90;;;9.10;99.90;;;;;;5094283;28;20135;-75
2023/04/15 08:41:20;;;;;;;3.30;3.00;;;9.10;99.90;;;;;;5095888;28;20079;-74
2023/04/15 08:43:53;;;;;;;2.42;2.20;;;9.10;99.90;;;;;;5095761;28;20380;-76
2023/04/15 08:46:20;;;;;;;2.85;2.08;;;9.10;99.90;;;;;;5077313;28;20040;-77
2023/04/15 08:48:47;;;;;;;3.05;2.03;;;9.10;99.90;;;;;;5094187;28;20130;-74
2023/04/15 08:51:15;;;;;;;2.58;2.00;;;9.10;99.90;;;;;;5077272;28;20492;-78
2023/04/15 08:53:42;;;;;;;2.75;2.55;;;9.10;99.90;;;;;;5093904;28;20062;-77
2023/04/15 08:56:10;;;;;;;2.40;2.15;;;9.20;99.90;;;;;;5077108;28;20365;-77
2023/04/15 08:58:36;;;;;;;2.17;1.95;;;9.20;99.90;;;;;;5093920;28;20052;-83
2023/04/15 09:01:02;;;;;;;2.00;1.80;;;9.40;99.90;;;;;;5077090;28;20484;-80
2023/04/15 09:03:28;;;;;;;3.78;2.10;;;9.40;99.90;;;;;;5093947;28;20047;-75
2023/04/15 09:05:56;;;;;;;3.33;2.40;;;9.50;99.90;;;;;;5076889;28;20051;-77
2023/04/15 09:08:21;;;;;;;1.95;1.80;;;9.40;99.90;;;;;;5095300;28;20387;-77
2023/04/15 09:10:47;;;;;;;2.40;2.20;;;9.40;99.90;;;;;;5093777;28;20040;-78
2023/04/15 09:13:13;;;;;;;1.67;1.58;;;9.60;99.90;;;;;;5094029;28;20071;-78
2023/04/15 09:15:39;;;;;;;1.67;1.50;;;9.60;99.90;;;;;;5093673;28;20115;-78
2023/04/15 09:18:05;;;;;;;1.60;1.50;;;9.70;99.90;;;;;;5093542;28;20196;-73
2023/04/15 09:20:41;;;;;;;1.88;1.70;;;9.70;99.90;;;;;;5093563;28;20048;-79
2023/04/15 09:23:14;;;;;;;2.58;1.80;;;9.70;99.90;;;;;;5095116;28;20032;-79
2023/04/15 09:25:43;;;;;;;1.60;1.50;;;9.60;99.90;;;;;;5093822;28;20136;-79
2023/04/15 09:28:10;;;;;;;1.95;1.50;;;9.60;99.90;;;;;;5093364;28;20040;-79
2023/04/15 09:30:36;;;;;;;1.70;1.60;;;9.70;99.90;;;;;;5094843;28;20048;-79
2023/04/15 09:33:06;;;;;;;2.20;1.35;;;9.70;99.90;;;;;;5093709;28;20050;-79
2023/04/15 09:35:32;;;;;;;1.52;1.42;;;9.70;99.90;;;;;;5093518;28;20047;-79
2023/04/15 09:38:06;;;;;;;1.40;1.30;;;9.70;99.90;;;;;;5094573;28;20484;-79
2023/04/15 09:40:40;;;;;;;1.50;1.40;;;9.80;99.90;;;;;;5093594;28;20040;-79
2023/04/15 09:43:07;;;;;;;2.53;1.60;;;9.80;99.90;;;;;;5093169;28;20510;-79
2023/04/15 09:45:34;;;;;;;2.30;1.48;;;9.80;99.90;;;;;;5094615;28;20031;-79
2023/04/15 09:48:14;;;;;;;2.25;1.73;;;9.90;99.90;;;;;;5093019;28;20127;-82
2023/04/15 09:50:42;;;;;;;1.52;1.42;;;9.90;99.90;;;;;;5093067;28;20539;-82
2023/04/15 09:53:16;;;;;;;1.65;1.35;;;9.90;99.90;;;;;;5094519;28;20047;-86
2023/04/15 09:55:53;;;;;;;1.48;1.35;;;10.00;99.90;;;;;;5093178;28;20608;-86
2023/04/15 09:58:27;;;;;;;1.40;1.10;;;10.00;99.90;;;;;;5093353;28;20485;-82
2023/04/15 10:00:55;;;;;;;1.73;1.20;;;10.00;99.90;;;;;;5076220;28;20430;-82
2023/04/15 10:03:25;;;;;;;1.40;1.20;;;10.00;99.90;;;;;;5093087;28;20043;-73
2023/04/15 10:05:53;;;;;;;2.08;1.30;;;10.10;99.90;;;;;;5094362;28;20085;-81
2023/04/15 10:08:20;;;;;;;2.25;1.48;;;10.10;99.90;;;;;;5093029;28;20044;-86
2023/04/15 10:10:47;;;;;;;2.03;1.30;;;10.10;99.90;;;;;;5092898;28;20597;-88
2023/04/15 10:13:16;;;;;;;1.67;1.20;;;10.10;99.90;;;;;;5094602;28;20106;-86
2023/04/15 10:15:46;;;;;;;1.20;1.10;;;10.10;99.90;;;;;;5092910;28;20043;-88
2023/04/15 10:18:14;;;;;;;;;;;10.20;99.90;;;;;;5094342;28;20530;-81
2023/04/15 10:20:41;;;;;;;2.30;1.30;;;10.20;99.90;;;;;;5092437;28;19916;-86
2023/04/15 10:23:08;;;;;;;1.25;1.15;;;10.10;99.90;;;;;;5094083;28;20120;-87
2023/04/15 10:25:34;;;;;;;1.75;1.38;;;10.10;99.90;;;;;;5093991;28;20044;-76
2023/04/15 10:28:01;;;;;;;1.52;1.30;;;10.10;99.90;;;;;;5093584;28;20388;-79
2023/04/15 10:30:27;;;;;;;2.35;1.55;;;10.20;99.90;;;;;;5093923;28;20040;-78
2023/04/15 10:32:54;;;;;;;2.38;1.50;;;10.20;99.90;;;;;;5092511;28;20040;-74
2023/04/15 10:35:21;;;;;;;2.42;1.40;;;10.20;99.90;;;;;;5092475;28;20036;-77
2023/04/15 10:37:47;;;;;;;1.67;1.50;;;10.10;99.90;;;;;;5093535;28;20028;-77
2023/04/15 10:40:30;;;;;;;1.52;1.20;;;10.20;99.90;;;;;;5075405;28;20484;-76
2023/04/15 10:43:02;;;;;;;1.77;1.40;;;10.20;99.90;;;;;;5075026;28;20035;-76
2023/04/15 10:45:32;;;;;;;1.35;1.10;;;10.20;99.90;;;;;;5092256;28;20082;-77
2023/04/15 10:48:01;;;;;;;1.42;1.20;;;10.30;99.90;;;;;;5092205;28;20051;-77
2023/04/15 10:50:28;;;;;;;2.63;1.50;;;10.30;99.90;;;;;;5092159;28;20479;-77
2023/04/15 10:52:56;;;;;;;1.13;0.90;;;10.30;99.90;;;;;;5093734;28;20391;-77
2023/04/15 10:55:26;;;;;;;1.45;1.08;;;10.30;99.90;;;;;;5126481;28;20374;-78
2023/04/15 10:57:59;;;;;;;1.10;1.00;;;10.40;99.90;;;;;;5092686;28;20606;-75
2023/04/15 11:00:29;;;;;;;2.13;1.52;;;10.50;99.90;;;;;;5126563;28;20044;-78
2023/04/15 11:03:06;;;;;;;1.75;1.10;;;10.50;99.90;;;;;;5093786;28;20096;-84
2023/04/15 11:05:41;;;;;;;0.93;0.93;;;10.60;99.90;;;;;;5093746;28;20039;-83
2023/04/15 11:08:08;;;;;;;1.20;1.10;;;10.70;99.90;;;;;;5093690;28;20040;-85
2023/04/15 11:10:33;;;;;;;1.98;1.05;;;10.80;99.90;;;;;;5075887;28;20032;-88
2023/04/15 11:13:04;;;;;;;1.33;0.82;;;10.90;99.90;;;;;;5075761;28;20036;-86
2023/04/15 11:15:39;;;;;;;1.55;1.27;;;10.90;99.90;;;;;;5092265;28;20392;-87
2023/04/15 11:18:08;;;;;;;1.45;0.95;;;11.00;99.90;;;;;;5075242;28;20116;-86
2023/04/15 11:20:34;;;;;;;1.20;0.80;;;11.00;99.90;;;;;;5092498;28;20038;-85
2023/04/15 11:22:59;;;;;;;1.55;1.10;;;11.10;99.90;;;;;;5092408;28;20145;-86
2023/04/15 11:25:27;;;;;;;1.20;0.90;;;11.20;99.90;;;;;;5075641;28;20196;-79
2023/04/15 11:27:54;;;;;;;1.08;0.90;;;11.20;99.90;;;;;;5092119;28;20506;-84
2023/04/15 11:30:25;;;;;;;1.52;0.95;;;11.20;99.90;;;;;;5074981;28;20086;-76
2023/04/15 11:32:54;;;;;;;1.35;0.93;;;11.10;99.90;;;;;;5074940;28;20050;-85
2023/04/15 11:35:20;;;;;;;1.02;0.93;;;11.10;99.90;;;;;;5091829;28;20048;-84
2023/04/15 11:37:48;;;;;;;1.17;1.08;;;11.00;99.90;;;;;;5091618;28;20051;-85
2023/04/15 11:40:16;;;;;;;2.63;1.20;;;11.00;99.90;;;;;;5093327;28;20044;-85
2023/04/15 11:42:43;;;;;;;1.70;1.38;;;11.00;99.90;;;;;;5093496;28;20039;-85
2023/04/15 11:45:10;;;;;;;2.15;1.23;;;11.00;99.90;;;;;;5093215;28;20032;-85
2023/04/15 11:47:36;;;;;;;2.35;1.40;;;11.00;99.90;;;;;;5091683;28;20048;-85
2023/04/15 11:50:17;;;;;;;1.23;1.08;;;11.00;99.90;;;;;;5091735;28;20040;-85
2023/04/15 11:52:57;;;;;;;0.95;0.95;;;11.00;99.90;;;;;;5091883;28;20056;-84
2023/04/15 11:55:23;;;;;;;;;;;11.10;99.90;;;;;;5092641;28;20036;-85
2023/04/15 11:58:12;;;;;;;1.70;1.10;;;11.20;99.90;;;;;;5095484;28;20325;-85
2023/04/15 12:00:39;;;;;;;2.38;1.50;;;11.30;99.90;;;;;;5095234;28;20040;-85
2023/04/15 12:03:42;;;;;;;3.10;1.60;;;11.20;99.90;;;;;;5096603;28;20461;-85
2023/04/15 12:06:18;;;;;;;1.70;1.15;;;11.10;99.90;;;;;;5096590;28;20043;-85
2023/04/15 12:08:54;;;;;;;1.38;1.20;;;11.00;99.90;;;;;;5095367;28;20389;-85
2023/04/15 12:11:30;;;;;;;3.03;1.50;;;11.00;99.90;;;;;;5096520;28;20070;-85
2023/04/15 12:14:05;;;;;;;2.95;1.48;;;10.90;99.90;;;;;;5094795;28;20044;-85
2023/04/15 12:16:32;;;;;;;1.90;0.90;;;11.00;99.90;;;;;;5094769;28;20127;-85
2023/04/15 12:18:59;;;;;;;2.90;1.25;;;11.00;99.90;;;;;;5078101;28;20464;-85
2023/04/15 12:21:33;;;;;;;2.08;1.33;;;11.00;99.90;;;;;;5077925;28;20084;-85
2023/04/15 12:24:02;;;;;;;2.65;1.25;;;11.00;99.90;;;;;;5094796;28;20044;-84
2023/04/15 12:26:30;;;;;;;2.33;1.40;;;11.00;99.90;;;;;;5096358;28;20040;-85
2023/04/15 12:29:07;;;;;;;2.00;1.20;;;10.90;99.90;;;;;;5077750;28;20108;-84
2023/04/15 12:31:45;;;;;;;2.28;1.20;;;11.00;99.90;;;;;;5096101;28;20031;-85
2023/04/15 12:34:10;;;;;;;1.45;1.08;;;11.00;99.90;;;;;;5095745;28;20519;-85
2023/04/15 12:36:36;;;;;;;2.83;0.95;;;11.00;99.90;;;;;;5077646;28;20123;-85
2023/04/15 12:39:03;;;;;;;2.28;1.08;;;11.00;99.90;;;;;;5094253;28;20109;-85
2023/04/15 12:41:29;;;;;;;2.88;1.00;;;11.00;99.90;;;;;;5094427;28;20047;-85
2023/04/15 12:43:55;;;;;;;1.60;1.02;;;11.00;99.90;;;;;;5077834;28;20052;-85
2023/04/15 12:46:21;;;;;;;1.77;1.10;;;10.90;99.90;;;;;;5094313;28;20491;-85
2023/04/15 12:48:47;;;;;;;2.85;1.40;;;10.90;99.90;;;;;;5095867;28;20107;-84
2023/04/15 12:51:13;;;;;;;1.88;1.33;;;10.90;99.90;;;;;;5094664;28;20119;-84
2023/04/15 12:53:39;;;;;;;2.63;1.80;;;11.00;99.90;;;;;;5077353;28;20173;-84
2023/04/15 12:56:05;;;;;;;2.05;1.20;;;11.00;99.90;;;;;;5077221;28;20122;-85